Terminal Aerodrome Forecast
Issued by NWS

Home | Current Version | Previous Version | Text Only | Print | Product List | Glossary On
Versions: 1 2 3 4 5 6 7 8 9 10 11 12 13 14 15 16 17 18 19 20 21 22 23 24
000
FTUS43 KLSX 261800 AAA
TAFCPS
TAF AMD
KCPS 261844Z 2619/2718 22008KT P6SM SCT035 BKN060
     FM262100 22007KT P6SM BKN025
     FM270000 VRB04KT P6SM SCT030
     FM270400 31010KT P6SM BKN025=

USA.gov is the U.S. government's official web portal to all federal, state and local government web resources and services.